Terminal Aerodrome Forecast
Issued by NWS

Current Version | Previous Version | Text Only | Print | Product List | Glossary On
Versions: 1 2 3 4 5 6 7 8 9 10 11 12 13 14 15 16 17 18 19 20 21 22 23 24 25
000
FTUS43 KMKX 230520
TAFUES
TAF
KUES 230520Z 2306/2406 VRB03KT P6SM VCSH OVC025
     FM230700 VRB03KT P6SM VCSH OVC040
     FM231000 00000KT P6SM OVC070
     FM231600 22006KT P6SM BKN150
     FM232000 27008KT P6SM BKN120
     FM240000 28007KT P6SM VCSH BKN050
     FM240400 29010KT P6SM VCSH BKN020=

USA.gov is the U.S. government's official web portal to all federal, state and local government web resources and services.